sensor_id;sensor_type;location;lat;lon;timestamp;temperature;humidity
1956;DHT22;978;48.314;11.562;2023-04-01T00:00:02;20.40;65.70
1956;DHT22;978;48.314;11.562;2023-04-01T00:02:31;20.40;65.70
1956;DHT22;978;48.314;11.562;2023-04-01T00:04:58;20.40;65.70
1956;DHT22;978;48.314;11.562;2023-04-01T00:07:27;20.40;66.30
1956;DHT22;978;48.314;11.562;2023-04-01T00:09:53;20.40;65.70
1956;DHT22;978;48.314;11.562;2023-04-01T00:12:22;20.40;65.70
1956;DHT22;978;48.314;11.562;2023-04-01T00:14:50;20.40;65.60
1956;DHT22;978;48.314;11.562;2023-04-01T00:17:19;20.40;65.60
1956;DHT22;978;48.314;11.562;2023-04-01T00:19:46;20.40;65.60
1956;DHT22;978;48.314;11.562;2023-04-01T00:22:14;20.40;65.60
1956;DHT22;978;48.314;11.562;2023-04-01T00:24:42;20.40;65.60
1956;DHT22;978;48.314;11.562;2023-04-01T00:27:09;20.40;65.60
1956;DHT22;978;48.314;11.562;2023-04-01T00:29:37;20.40;65.60
1956;DHT22;978;48.314;11.562;2023-04-01T00:32:05;20.40;65.60
1956;DHT22;978;48.314;11.562;2023-04-01T00:34:36;20.40;65.60
1956;DHT22;978;48.314;11.562;2023-04-01T00:37:05;20.40;65.50
1956;DHT22;978;48.314;11.562;2023-04-01T00:39:34;20.40;65.60
1956;DHT22;978;48.314;11.562;2023-04-01T00:42:02;20.40;65.50
1956;DHT22;978;48.314;11.562;2023-04-01T00:44:31;20.40;65.60
1956;DHT22;978;48.314;11.562;2023-04-01T00:46:59;20.40;65.60
1956;DHT22;978;48.314;11.562;2023-04-01T00:49:30;20.40;65.50
1956;DHT22;978;48.314;11.562;2023-04-01T00:52:02;20.40;65.50
1956;DHT22;978;48.314;11.562;2023-04-01T00:54:32;20.40;65.50
1956;DHT22;978;48.314;11.562;2023-04-01T00:57:01;20.40;65.50
1956;DHT22;978;48.314;11.562;2023-04-01T00:59:34;20.40;65.50
1956;DHT22;978;48.314;11.562;2023-04-01T01:02:02;20.30;65.40
1956;DHT22;978;48.314;11.562;2023-04-01T01:04:33;20.40;65.40
1956;DHT22;978;48.314;11.562;2023-04-01T01:07:12;20.40;65.40
1956;DHT22;978;48.314;11.562;2023-04-01T01:09:46;20.40;65.40
1956;DHT22;978;48.314;11.562;2023-04-01T01:12:20;20.40;65.50
1956;DHT22;978;48.314;11.562;2023-04-01T01:14:54;20.40;65.40
1956;DHT22;978;48.314;11.562;2023-04-01T01:17:32;20.30;65.40
1956;DHT22;978;48.314;11.562;2023-04-01T01:20:36;20.40;65.40
1956;DHT22;978;48.314;11.562;2023-04-01T01:29:42;20.40;65.40
1956;DHT22;978;48.314;11.562;2023-04-01T01:32:16;20.30;65.40
1956;DHT22;978;48.314;11.562;2023-04-01T01:34:53;20.30;65.40
1956;DHT22;978;48.314;11.562;2023-04-01T01:37:26;20.30;65.30
1956;DHT22;978;48.314;11.562;2023-04-01T01:39:56;20.40;65.40
1956;DHT22;978;48.314;11.562;2023-04-01T01:42:26;20.40;65.40
1956;DHT22;978;48.314;11.562;2023-04-01T01:44:55;20.40;65.30
1956;DHT22;978;48.314;11.562;2023-04-01T01:47:25;20.40;65.30
1956;DHT22;978;48.314;11.562;2023-04-01T01:49:54;20.40;65.30
1956;DHT22;978;48.314;11.562;2023-04-01T01:52:27;20.30;65.30
1956;DHT22;978;48.314;11.562;2023-04-01T01:54:55;20.40;65.30
1956;DHT22;978;48.314;11.562;2023-04-01T01:57:26;20.30;65.20
1956;DHT22;978;48.314;11.562;2023-04-01T01:59:56;20.40;65.30
1956;DHT22;978;48.314;11.562;2023-04-01T02:02:25;20.30;65.30
1956;DHT22;978;48.314;11.562;2023-04-01T02:04:53;20.40;65.30
1956;DHT22;978;48.314;11.562;2023-04-01T02:07:25;20.40;65.30
1956;DHT22;978;48.314;11.562;2023-04-01T02:09:54;20.30;65.20
1956;DHT22;978;48.314;11.562;2023-04-01T02:12:23;20.30;65.20
1956;DHT22;978;48.314;11.562;2023-04-01T02:14:52;20.30;65.20
1956;DHT22;978;48.314;11.562;2023-04-01T02:17:24;20.30;65.20
1956;DHT22;978;48.314;11.562;2023-04-01T02:19:53;20.40;65.20
1956;DHT22;978;48.314;11.562;2023-04-01T02:22:26;20.30;65.20
1956;DHT22;978;48.314;11.562;2023-04-01T02:24:56;20.40;65.20
1956;DHT22;978;48.314;11.562;2023-04-01T02:27:25;20.40;65.20
1956;DHT22;978;48.314;11.562;2023-04-01T02:29:52;20.30;65.10
1956;DHT22;978;48.314;11.562;2023-04-01T02:32:21;20.40;65.20
1956;DHT22;978;48.314;11.562;2023-04-01T02:34:48;20.40;65.20
1956;DHT22;978;48.314;11.562;2023-04-01T02:37:17;20.40;65.20
1956;DHT22;978;48.314;11.562;2023-04-01T02:39:46;20.40;65.20
1956;DHT22;978;48.314;11.562;2023-04-01T02:42:15;20.40;65.20
1956;DHT22;978;48.314;11.562;2023-04-01T02:44:42;20.40;65.20
1956;DHT22;978;48.314;11.562;2023-04-01T02:47:10;20.40;65.10
1956;DHT22;978;48.314;11.562;2023-04-01T02:49:36;20.40;65.10
1956;DHT22;978;48.314;11.562;2023-04-01T02:52:04;20.30;65.10
1956;DHT22;978;48.314;11.562;2023-04-01T02:54:30;20.40;65.10
1956;DHT22;978;48.314;11.562;2023-04-01T02:56:58;20.40;65.10
1956;DHT22;978;48.314;11.562;2023-04-01T02:59:27;20.30;65.10
1956;DHT22;978;48.314;11.562;2023-04-01T03:01:53;20.30;65.10
1956;DHT22;978;48.314;11.562;2023-04-01T03:04:22;20.30;65.10
1956;DHT22;978;48.314;11.562;2023-04-01T03:06:49;20.30;65.10
1956;DHT22;978;48.314;11.562;2023-04-01T03:09:18;20.30;65.00
1956;DHT22;978;48.314;11.562;2023-04-01T03:11:46;20.40;65.10
1956;DHT22;978;48.314;11.562;2023-04-01T03:14:15;20.40;65.10
1956;DHT22;978;48.314;11.562;2023-04-01T03:16:44;20.40;65.10
1956;DHT22;978;48.314;11.562;2023-04-01T03:19:10;20.30;65.00
1956;DHT22;978;48.314;11.562;2023-04-01T03:21:41;20.40;65.00
1956;DHT22;978;48.314;11.562;2023-04-01T03:24:09;20.30;65.00
1956;DHT22;978;48.314;11.562;2023-04-01T03:26:37;20.30;65.00
1956;DHT22;978;48.314;11.562;2023-04-01T03:29:06;20.30;65.00
1956;DHT22;978;48.314;11.562;2023-04-01T03:31:37;20.30;65.00
1956;DHT22;978;48.314;11.562;2023-04-01T03:34:06;20.30;65.00
1956;DHT22;978;48.314;11.562;2023-04-01T03:36:36;20.40;65.00
1956;DHT22;978;48.314;11.562;2023-04-01T03:39:04;20.40;65.00
1956;DHT22;978;48.314;11.562;2023-04-01T03:41:36;20.30;65.00
1956;DHT22;978;48.314;11.562;2023-04-01T03:44:05;20.30;64.90
1956;DHT22;978;48.314;11.562;2023-04-01T03:46:33;20.30;64.90
1956;DHT22;978;48.314;11.562;2023-04-01T03:49:02;20.40;65.00
1956;DHT22;978;48.314;11.562;2023-04-01T03:51:30;20.40;65.00
1956;DHT22;978;48.314;11.562;2023-04-01T03:53:58;20.40;64.90
1956;DHT22;978;48.314;11.562;2023-04-01T03:56:26;20.30;64.90
1956;DHT22;978;48.314;11.562;2023-04-01T03:58:54;20.40;64.90
1956;DHT22;978;48.314;11.562;2023-04-01T04:01:22;20.30;64.80
1956;DHT22;978;48.314;11.562;2023-04-01T04:03:51;20.40;65.00
1956;DHT22;978;48.314;11.562;2023-04-01T04:06:20;20.30;64.80
1956;DHT22;978;48.314;11.562;2023-04-01T04:08:47;20.30;64.80
1956;DHT22;978;48.314;11.562;2023-04-01T04:11:16;20.30;64.80
1956;DHT22;978;48.314;11.562;2023-04-01T04:13:44;20.40;64.90
1956;DHT22;978;48.314;11.562;2023-04-01T04:16:11;20.30;64.80
1956;DHT22;978;48.314;11.562;2023-04-01T04:18:40;20.30;64.80
1956;DHT22;978;48.314;11.562;2023-04-01T04:21:10;20.30;64.80
1956;DHT22;978;48.314;11.562;2023-04-01T04:23:42;20.40;64.90
1956;DHT22;978;48.314;11.562;2023-04-01T04:26:12;20.30;64.80
1956;DHT22;978;48.314;11.562;2023-04-01T04:28:40;20.30;64.80
1956;DHT22;978;48.314;11.562;2023-04-01T04:31:07;20.30;64.80
1956;DHT22;978;48.314;11.562;2023-04-01T04:33:35;20.30;64.80
1956;DHT22;978;48.314;11.562;2023-04-01T04:36:04;20.30;64.80
1956;DHT22;978;48.314;11.562;2023-04-01T04:38:32;20.30;64.80
1956;DHT22;978;48.314;11.562;2023-04-01T04:41:01;20.30;64.70
1956;DHT22;978;48.314;11.562;2023-04-01T04:43:29;20.30;64.80
1956;DHT22;978;48.314;11.562;2023-04-01T04:45:57;20.30;64.70
1956;DHT22;978;48.314;11.562;2023-04-01T04:48:25;20.30;64.70
1956;DHT22;978;48.314;11.562;2023-04-01T04:50:53;20.40;64.80
1956;DHT22;978;48.314;11.562;2023-04-01T04:53:21;20.40;64.80
1956;DHT22;978;48.314;11.562;2023-04-01T04:55:50;20.30;64.70
1956;DHT22;978;48.314;11.562;2023-04-01T04:58:19;20.40;64.80
1956;DHT22;978;48.314;11.562;2023-04-01T05:00:47;20.30;64.80
1956;DHT22;978;48.314;11.562;2023-04-01T05:03:16;20.30;64.80
1956;DHT22;978;48.314;11.562;2023-04-01T05:05:49;20.30;64.70
1956;DHT22;978;48.314;11.562;2023-04-01T05:08:17;20.40;64.80
1956;DHT22;978;48.314;11.562;2023-04-01T05:10:45;20.30;64.70
1956;DHT22;978;48.314;11.562;2023-04-01T05:13:13;20.40;64.80
1956;DHT22;978;48.314;11.562;2023-04-01T05:15:43;20.30;64.70
1956;DHT22;978;48.314;11.562;2023-04-01T05:18:10;20.30;64.70
1956;DHT22;978;48.314;11.562;2023-04-01T05:20:46;20.30;64.70
1956;DHT22;978;48.314;11.562;2023-04-01T05:23:14;20.40;64.70
1956;DHT22;978;48.314;11.562;2023-04-01T05:25:42;20.30;64.70
1956;DHT22;978;48.314;11.562;2023-04-01T05:28:10;20.30;64.60
1956;DHT22;978;48.314;11.562;2023-04-01T05:30:40;20.30;64.70
1956;DHT22;978;48.314;11.562;2023-04-01T05:33:11;20.30;64.70
1956;DHT22;978;48.314;11.562;2023-04-01T05:35:40;20.30;64.60
1956;DHT22;978;48.314;11.562;2023-04-01T05:38:08;20.30;64.60
1956;DHT22;978;48.314;11.562;2023-04-01T05:40:36;20.30;64.60
1956;DHT22;978;48.314;11.562;2023-04-01T05:43:04;20.30;64.70
1956;DHT22;978;48.314;11.562;2023-04-01T05:45:32;20.30;64.60
1956;DHT22;978;48.314;11.562;2023-04-01T05:48:00;20.40;64.70
1956;DHT22;978;48.314;11.562;2023-04-01T05:50:29;20.40;64.60
1956;DHT22;978;48.314;11.562;2023-04-01T05:52:57;20.30;64.60
1956;DHT22;978;48.314;11.562;2023-04-01T05:55:25;20.30;64.60
1956;DHT22;978;48.314;11.562;2023-04-01T05:57:54;20.30;64.60
1956;DHT22;978;48.314;11.562;2023-04-01T06:00:22;20.30;64.60
1956;DHT22;978;48.314;11.562;2023-04-01T06:02:49;20.40;64.70
1956;DHT22;978;48.314;11.562;2023-04-01T06:05:20;20.40;64.70
1956;DHT22;978;48.314;11.562;2023-04-01T06:07:50;20.30;64.60
1956;DHT22;978;48.314;11.562;2023-04-01T06:10:28;20.40;64.60
1956;DHT22;978;48.314;11.562;2023-04-01T06:13:08;20.30;64.60
1956;DHT22;978;48.314;11.562;2023-04-01T06:15:43;20.30;64.60
1956;DHT22;978;48.314;11.562;2023-04-01T06:21:42;20.40;64.60
1956;DHT22;978;48.314;11.562;2023-04-01T06:24:25;20.30;64.50
1956;DHT22;978;48.314;11.562;2023-04-01T06:27:03;20.40;64.60
1956;DHT22;978;48.314;11.562;2023-04-01T06:30:02;20.30;64.50
1956;DHT22;978;48.314;11.562;2023-04-01T06:33:00;20.30;64.50
1956;DHT22;978;48.314;11.562;2023-04-01T06:35:43;20.40;64.60
1956;DHT22;978;48.314;11.562;2023-04-01T06:38:29;20.30;64.50
1956;DHT22;978;48.314;11.562;2023-04-01T06:44:12;20.30;64.50
1956;DHT22;978;48.314;11.562;2023-04-01T06:46:45;20.30;65.10
1956;DHT22;978;48.314;11.562;2023-04-01T06:49:28;20.40;64.50
1956;DHT22;978;48.314;11.562;2023-04-01T06:52:03;20.40;64.50
1956;DHT22;978;48.314;11.562;2023-04-01T06:54:37;20.30;64.50
1956;DHT22;978;48.314;11.562;2023-04-01T06:57:12;20.30;64.40
1956;DHT22;978;48.314;11.562;2023-04-01T06:59:48;20.30;64.40
1956;DHT22;978;48.314;11.562;2023-04-01T07:02:24;20.30;64.50
1956;DHT22;978;48.314;11.562;2023-04-01T07:04:55;20.30;64.40
1956;DHT22;978;48.314;11.562;2023-04-01T07:07:30;20.30;64.40
1956;DHT22;978;48.314;11.562;2023-04-01T07:10:02;20.30;64.40
1956;DHT22;978;48.314;11.562;2023-04-01T07:12:38;20.40;64.50
1956;DHT22;978;48.314;11.562;2023-04-01T07:15:18;20.30;64.40
1956;DHT22;978;48.314;11.562;2023-04-01T07:17:50;20.30;64.40
1956;DHT22;978;48.314;11.562;2023-04-01T07:20:23;20.40;64.40
1956;DHT22;978;48.314;11.562;2023-04-01T07:22:56;20.30;64.40
1956;DHT22;978;48.314;11.562;2023-04-01T07:25:28;20.40;64.40
1956;DHT22;978;48.314;11.562;2023-04-01T07:28:01;20.30;64.30
1956;DHT22;978;48.314;11.562;2023-04-01T07:30:41;20.40;64.50
1956;DHT22;978;48.314;11.562;2023-04-01T07:33:15;20.30;64.40
1956;DHT22;978;48.314;11.562;2023-04-01T07:35:47;20.40;64.50
1956;DHT22;978;48.314;11.562;2023-04-01T07:38:22;20.30;64.40
1956;DHT22;978;48.314;11.562;2023-04-01T07:41:00;20.40;64.50
1956;DHT22;978;48.314;11.562;2023-04-01T07:43:57;20.40;64.50
1956;DHT22;978;48.314;11.562;2023-04-01T07:46:50;20.30;64.40
1956;DHT22;978;48.314;11.562;2023-04-01T07:49:25;20.30;64.40
1956;DHT22;978;48.314;11.562;2023-04-01T07:52:00;20.30;64.40
1956;DHT22;978;48.314;11.562;2023-04-01T07:54:35;20.30;64.40
1956;DHT22;978;48.314;11.562;2023-04-01T07:57:10;20.40;64.40
1956;DHT22;978;48.314;11.562;2023-04-01T07:59:45;20.40;64.40
1956;DHT22;978;48.314;11.562;2023-04-01T08:02:27;20.40;64.40
1956;DHT22;978;48.314;11.562;2023-04-01T08:05:06;20.40;64.50
1956;DHT22;978;48.314;11.562;2023-04-01T08:07:43;20.40;64.50
1956;DHT22;978;48.314;11.562;2023-04-01T08:10:18;20.40;64.50
1956;DHT22;978;48.314;11.562;2023-04-01T08:12:55;20.40;64.60
1956;DHT22;978;48.314;11.562;2023-04-01T08:15:29;20.40;64.60
1956;DHT22;978;48.314;11.562;2023-04-01T08:18:13;20.40;64.60
1956;DHT22;978;48.314;11.562;2023-04-01T08:20:47;20.40;64.70
1956;DHT22;978;48.314;11.562;2023-04-01T08:23:17;20.40;64.70
1956;DHT22;978;48.314;11.562;2023-04-01T08:25:50;20.40;64.70
1956;DHT22;978;48.314;11.562;2023-04-01T08:28:24;20.40;64.70
1956;DHT22;978;48.314;11.562;2023-04-01T08:30:56;20.40;64.70
1956;DHT22;978;48.314;11.562;2023-04-01T08:33:28;20.40;64.70
1956;DHT22;978;48.314;11.562;2023-04-01T08:36:01;20.40;64.70
1956;DHT22;978;48.314;11.562;2023-04-01T08:38:32;20.40;64.70
1956;DHT22;978;48.314;11.562;2023-04-01T08:41:33;20.30;64.60
1956;DHT22;978;48.314;11.562;2023-04-01T08:44:31;20.40;64.70
1956;DHT22;978;48.314;11.562;2023-04-01T08:47:20;20.30;64.60
1956;DHT22;978;48.314;11.562;2023-04-01T08:50:19;20.40;64.60
1956;DHT22;978;48.314;11.562;2023-04-01T08:52:59;20.40;64.60
1956;DHT22;978;48.314;11.562;2023-04-01T08:55:39;20.40;64.60
1956;DHT22;978;48.314;11.562;2023-04-01T08:58:32;20.40;64.50
1956;DHT22;978;48.314;11.562;2023-04-01T09:01:14;20.40;64.50
1956;DHT22;978;48.314;11.562;2023-04-01T09:04:16;20.40;64.50
1956;DHT22;978;48.314;11.562;2023-04-01T09:07:04;20.40;64.50
1956;DHT22;978;48.314;11.562;2023-04-01T09:09:56;20.40;64.50
1956;DHT22;978;48.314;11.562;2023-04-01T09:12:59;20.40;64.50
1956;DHT22;978;48.314;11.562;2023-04-01T09:15:54;20.40;64.50
1956;DHT22;978;48.314;11.562;2023-04-01T09:21:43;20.40;64.50
1956;DHT22;978;48.314;11.562;2023-04-01T09:24:51;20.40;64.50
1956;DHT22;978;48.314;11.562;2023-04-01T09:27:27;20.40;64.50
1956;DHT22;978;48.314;11.562;2023-04-01T09:30:45;20.40;64.50
1956;DHT22;978;48.314;11.562;2023-04-01T09:33:55;20.40;64.50
1956;DHT22;978;48.314;11.562;2023-04-01T09:36:40;20.40;64.50
1956;DHT22;978;48.314;11.562;2023-04-01T09:39:34;20.40;64.40
1956;DHT22;978;48.314;11.562;2023-04-01T09:42:29;20.40;64.40
1956;DHT22;978;48.314;11.562;2023-04-01T09:45:04;20.40;64.30
1956;DHT22;978;48.314;11.562;2023-04-01T09:47:48;20.40;64.40
1956;DHT22;978;48.314;11.562;2023-04-01T09:50:33;20.40;64.30
1956;DHT22;978;48.314;11.562;2023-04-01T09:53:14;20.40;64.40
1956;DHT22;978;48.314;11.562;2023-04-01T09:59:22;20.40;64.30
1956;DHT22;978;48.314;11.562;2023-04-01T10:08:24;20.50;65.30
1956;DHT22;978;48.314;11.562;2023-04-01T10:11:22;20.40;64.50
1956;DHT22;978;48.314;11.562;2023-04-01T10:23:27;20.40;64.30
1956;DHT22;978;48.314;11.562;2023-04-01T10:32:31;20.40;64.10
1956;DHT22;978;48.314;11.562;2023-04-01T10:38:23;20.40;64.10
1956;DHT22;978;48.314;11.562;2023-04-01T10:41:18;20.40;64.10
1956;DHT22;978;48.314;11.562;2023-04-01T10:44:37;20.40;64.10
1956;DHT22;978;48.314;11.562;2023-04-01T10:47:36;20.40;64.10
1956;DHT22;978;48.314;11.562;2023-04-01T10:50:24;20.40;64.00
1956;DHT22;978;48.314;11.562;2023-04-01T10:53:22;20.40;64.10
1956;DHT22;978;48.314;11.562;2023-04-01T10:56:33;20.40;64.00
1956;DHT22;978;48.314;11.562;2023-04-01T10:59:28;20.40;64.00
1956;DHT22;978;48.314;11.562;2023-04-01T11:05:34;20.40;64.00
1956;DHT22;978;48.314;11.562;2023-04-01T11:24:05;20.40;64.10
1956;DHT22;978;48.314;11.562;2023-04-01T11:26:44;20.40;64.10
1956;DHT22;978;48.314;11.562;2023-04-01T11:29:33;20.40;64.00
1956;DHT22;978;48.314;11.562;2023-04-01T11:32:12;20.40;64.00
1956;DHT22;978;48.314;11.562;2023-04-01T11:34:59;20.40;64.00
1956;DHT22;978;48.314;11.562;2023-04-01T11:37:37;20.40;64.10
1956;DHT22;978;48.314;11.562;2023-04-01T11:40:16;20.40;64.10
1956;DHT22;978;48.314;11.562;2023-04-01T11:42:51;20.40;64.10
1956;DHT22;978;48.314;11.562;2023-04-01T11:45:27;20.40;64.10
1956;DHT22;978;48.314;11.562;2023-04-01T11:48:19;20.40;64.10
1956;DHT22;978;48.314;11.562;2023-04-01T11:51:22;20.40;64.20
1956;DHT22;978;48.314;11.562;2023-04-01T11:54:01;20.40;64.30
1956;DHT22;978;48.314;11.562;2023-04-01T11:56:53;20.40;64.20
1956;DHT22;978;48.314;11.562;2023-04-01T12:02:30;20.40;64.30
1956;DHT22;978;48.314;11.562;2023-04-01T12:05:23;20.40;64.30
1956;DHT22;978;48.314;11.562;2023-04-01T12:08:08;20.40;64.30
1956;DHT22;978;48.314;11.562;2023-04-01T12:10:45;20.40;64.30
1956;DHT22;978;48.314;11.562;2023-04-01T12:13:24;20.40;64.30
1956;DHT22;978;48.314;11.562;2023-04-01T12:16:08;20.40;64.30
1956;DHT22;978;48.314;11.562;2023-04-01T12:18:42;20.40;64.40
1956;DHT22;978;48.314;11.562;2023-04-01T12:21:21;20.40;64.40
1956;DHT22;978;48.314;11.562;2023-04-01T12:24:05;20.40;64.40
1956;DHT22;978;48.314;11.562;2023-04-01T12:26:57;20.40;64.40
1956;DHT22;978;48.314;11.562;2023-04-01T12:29:44;20.40;64.40
1956;DHT22;978;48.314;11.562;2023-04-01T12:32:20;20.40;64.40
1956;DHT22;978;48.314;11.562;2023-04-01T12:35:02;20.40;64.40
1956;DHT22;978;48.314;11.562;2023-04-01T12:37:41;20.40;64.40
1956;DHT22;978;48.314;11.562;2023-04-01T12:40:40;20.40;64.40
1956;DHT22;978;48.314;11.562;2023-04-01T12:43:46;20.40;64.50
1956;DHT22;978;48.314;11.562;2023-04-01T12:46:25;20.40;64.50
1956;DHT22;978;48.314;11.562;2023-04-01T12:52:05;20.40;64.50
1956;DHT22;978;48.314;11.562;2023-04-01T12:57:53;20.40;64.50
1956;DHT22;978;48.314;11.562;2023-04-01T13:00:38;20.40;64.40
1956;DHT22;978;48.314;11.562;2023-04-01T13:03:21;20.40;64.50
1956;DHT22;978;48.314;11.562;2023-04-01T13:06:29;20.40;64.50
1956;DHT22;978;48.314;11.562;2023-04-01T13:09:08;20.40;64.60
1956;DHT22;978;48.314;11.562;2023-04-01T13:11:52;20.40;64.50
1956;DHT22;978;48.314;11.562;2023-04-01T13:14:43;20.40;65.20
1956;DHT22;978;48.314;11.562;2023-04-01T13:17:16;20.40;64.60
1956;DHT22;978;48.314;11.562;2023-04-01T13:19:50;20.40;64.50
1956;DHT22;978;48.314;11.562;2023-04-01T13:22:26;20.40;64.50
1956;DHT22;978;48.314;11.562;2023-04-01T13:25:02;20.40;64.50
1956;DHT22;978;48.314;11.562;2023-04-01T13:27:36;20.40;64.50
1956;DHT22;978;48.314;11.562;2023-04-01T13:30:20;20.40;64.60
1956;DHT22;978;48.314;11.562;2023-04-01T13:32:55;20.40;64.60
1956;DHT22;978;48.314;11.562;2023-04-01T13:35:34;20.40;64.70
1956;DHT22;978;48.314;11.562;2023-04-01T13:38:22;20.40;64.70
1956;DHT22;978;48.314;11.562;2023-04-01T13:40:59;20.40;64.80
1956;DHT22;978;48.314;11.562;2023-04-01T13:43:33;20.40;64.80
1956;DHT22;978;48.314;11.562;2023-04-01T13:46:26;20.40;64.80
1956;DHT22;978;48.314;11.562;2023-04-01T13:49:21;20.40;64.90
1956;DHT22;978;48.314;11.562;2023-04-01T13:55:04;20.40;64.90
1956;DHT22;978;48.314;11.562;2023-04-01T13:58:27;20.40;64.90
1956;DHT22;978;48.314;11.562;2023-04-01T14:01:06;20.40;65.00
1956;DHT22;978;48.314;11.562;2023-04-01T14:03:54;20.40;65.00
1956;DHT22;978;48.314;11.562;2023-04-01T14:06:34;20.40;65.00
1956;DHT22;978;48.314;11.562;2023-04-01T14:09:35;20.40;65.00
1956;DHT22;978;48.314;11.562;2023-04-01T14:12:13;20.40;65.10
1956;DHT22;978;48.314;11.562;2023-04-01T14:15:02;20.40;65.10
1956;DHT22;978;48.314;11.562;2023-04-01T14:17:48;20.40;65.10
1956;DHT22;978;48.314;11.562;2023-04-01T14:20:25;20.40;65.10
1956;DHT22;978;48.314;11.562;2023-04-01T14:23:09;20.40;65.10
1956;DHT22;978;48.314;11.562;2023-04-01T14:26:09;20.40;65.10
1956;DHT22;978;48.314;11.562;2023-04-01T14:28:45;20.40;65.10
1956;DHT22;978;48.314;11.562;2023-04-01T14:31:34;20.40;65.10
1956;DHT22;978;48.314;11.562;2023-04-01T14:34:15;20.40;65.10
1956;DHT22;978;48.314;11.562;2023-04-01T14:37:05;20.40;65.20
1956;DHT22;978;48.314;11.562;2023-04-01T14:40:13;20.50;65.30
1956;DHT22;978;48.314;11.562;2023-04-01T14:43:01;20.40;65.30
1956;DHT22;978;48.314;11.562;2023-04-01T14:45:59;20.50;65.40
1956;DHT22;978;48.314;11.562;2023-04-01T14:48:31;20.50;65.40
1956;DHT22;978;48.314;11.562;2023-04-01T14:51:04;20.50;65.60
1956;DHT22;978;48.314;11.562;2023-04-01T14:53:41;20.40;65.60
1956;DHT22;978;48.314;11.562;2023-04-01T14:56:11;20.40;65.60
1956;DHT22;978;48.314;11.562;2023-04-01T14:58:44;20.40;65.70
1956;DHT22;978;48.314;11.562;2023-04-01T15:01:23;20.40;65.60
1956;DHT22;978;48.314;11.562;2023-04-01T15:04:00;20.40;65.70
1956;DHT22;978;48.314;11.562;2023-04-01T15:06:56;20.40;65.60
1956;DHT22;978;48.314;11.562;2023-04-01T15:09:30;20.40;65.60
1956;DHT22;978;48.314;11.562;2023-04-01T15:12:11;20.40;65.60
1956;DHT22;978;48.314;11.562;2023-04-01T15:17:48;20.40;65.60
1956;DHT22;978;48.314;11.562;2023-04-01T15:20:41;20.40;65.70
1956;DHT22;978;48.314;11.562;2023-04-01T15:23:21;20.40;65.70
1956;DHT22;978;48.314;11.562;2023-04-01T15:26:17;20.40;65.60
1956;DHT22;978;48.314;11.562;2023-04-01T15:28:57;20.40;65.70
1956;DHT22;978;48.314;11.562;2023-04-01T15:31:33;20.40;65.70
1956;DHT22;978;48.314;11.562;2023-04-01T15:34:24;20.40;65.70
1956;DHT22;978;48.314;11.562;2023-04-01T15:36:56;20.40;65.70
1956;DHT22;978;48.314;11.562;2023-04-01T15:39:30;20.40;65.70
1956;DHT22;978;48.314;11.562;2023-04-01T15:42:30;20.40;65.70
1956;DHT22;978;48.314;11.562;2023-04-01T15:45:18;20.40;65.70
1956;DHT22;978;48.314;11.562;2023-04-01T15:48:04;20.40;65.70
1956;DHT22;978;48.314;11.562;2023-04-01T15:50:54;20.40;65.70
1956;DHT22;978;48.314;11.562;2023-04-01T15:53:50;20.40;65.80
1956;DHT22;978;48.314;11.562;2023-04-01T15:56:36;20.40;65.70
1956;DHT22;978;48.314;11.562;2023-04-01T15:59:27;20.50;65.70
1956;DHT22;978;48.314;11.562;2023-04-01T16:01:59;20.40;65.70
1956;DHT22;978;48.314;11.562;2023-04-01T16:04:46;20.50;65.90
1956;DHT22;978;48.314;11.562;2023-04-01T16:07:24;20.40;65.80
1956;DHT22;978;48.314;11.562;2023-04-01T16:10:06;20.40;65.80
1956;DHT22;978;48.314;11.562;2023-04-01T16:12:53;20.40;65.70
1956;DHT22;978;48.314;11.562;2023-04-01T16:15:29;20.40;65.70
1956;DHT22;978;48.314;11.562;2023-04-01T16:18:17;20.40;65.70
1956;DHT22;978;48.314;11.562;2023-04-01T16:20:56;20.40;65.60
1956;DHT22;978;48.314;11.562;2023-04-01T16:23:30;20.40;65.60
1956;DHT22;978;48.314;11.562;2023-04-01T16:26:07;20.40;65.50
1956;DHT22;978;48.314;11.562;2023-04-01T16:28:40;20.40;65.40
1956;DHT22;978;48.314;11.562;2023-04-01T16:31:13;20.40;65.40
1956;DHT22;978;48.314;11.562;2023-04-01T16:33:47;20.40;65.40
1956;DHT22;978;48.314;11.562;2023-04-01T16:36:26;20.50;65.40
1956;DHT22;978;48.314;11.562;2023-04-01T16:39:10;20.40;65.30
1956;DHT22;978;48.314;11.562;2023-04-01T16:41:45;20.40;65.30
1956;DHT22;978;48.314;11.562;2023-04-01T16:44:20;20.50;65.40
1956;DHT22;978;48.314;11.562;2023-04-01T16:46:51;20.50;65.40
1956;DHT22;978;48.314;11.562;2023-04-01T16:49:35;20.50;65.40
1956;DHT22;978;48.314;11.562;2023-04-01T16:52:36;20.50;65.40
1956;DHT22;978;48.314;11.562;2023-04-01T16:55:16;20.50;65.50
1956;DHT22;978;48.314;11.562;2023-04-01T16:57:48;20.50;65.50
1956;DHT22;978;48.314;11.562;2023-04-01T17:00:24;20.50;65.50
1956;DHT22;978;48.314;11.562;2023-04-01T17:03:03;20.50;65.50
1956;DHT22;978;48.314;11.562;2023-04-01T17:05:42;20.50;65.50
1956;DHT22;978;48.314;11.562;2023-04-01T17:08:21;20.50;65.50
1956;DHT22;978;48.314;11.562;2023-04-01T17:10:56;20.50;65.50
1956;DHT22;978;48.314;11.562;2023-04-01T17:13:35;20.50;65.50
1956;DHT22;978;48.314;11.562;2023-04-01T17:16:26;20.50;65.50
1956;DHT22;978;48.314;11.562;2023-04-01T17:19:04;20.50;65.60
1956;DHT22;978;48.314;11.562;2023-04-01T17:21:49;20.50;65.60
1956;DHT22;978;48.314;11.562;2023-04-01T17:24:29;20.50;65.60
1956;DHT22;978;48.314;11.562;2023-04-01T17:27:10;20.50;65.60
1956;DHT22;978;48.314;11.562;2023-04-01T17:29:59;20.50;65.60
1956;DHT22;978;48.314;11.562;2023-04-01T17:32:38;20.50;65.60
1956;DHT22;978;48.314;11.562;2023-04-01T17:35:14;20.50;65.60
1956;DHT22;978;48.314;11.562;2023-04-01T17:37:53;20.50;65.60
1956;DHT22;978;48.314;11.562;2023-04-01T17:40:41;20.50;65.60
1956;DHT22;978;48.314;11.562;2023-04-01T17:43:18;20.50;65.60
1956;DHT22;978;48.314;11.562;2023-04-01T17:45:53;20.50;65.60
1956;DHT22;978;48.314;11.562;2023-04-01T17:48:31;20.50;65.70
1956;DHT22;978;48.314;11.562;2023-04-01T17:51:16;20.50;65.70
1956;DHT22;978;48.314;11.562;2023-04-01T17:53:51;20.50;65.70
1956;DHT22;978;48.314;11.562;2023-04-01T17:56:33;20.50;65.80
1956;DHT22;978;48.314;11.562;2023-04-01T17:59:12;20.50;65.90
1956;DHT22;978;48.314;11.562;2023-04-01T18:01:48;20.50;65.90
1956;DHT22;978;48.314;11.562;2023-04-01T18:04:37;20.50;65.90
1956;DHT22;978;48.314;11.562;2023-04-01T18:07:34;20.50;66.00
1956;DHT22;978;48.314;11.562;2023-04-01T18:10:25;20.50;66.10
1956;DHT22;978;48.314;11.562;2023-04-01T18:13:21;20.50;66.20
1956;DHT22;978;48.314;11.562;2023-04-01T18:15:59;20.50;66.20
1956;DHT22;978;48.314;11.562;2023-04-01T18:18:42;20.50;66.20
1956;DHT22;978;48.314;11.562;2023-04-01T18:21:18;20.50;66.30
1956;DHT22;978;48.314;11.562;2023-04-01T18:23:53;20.50;66.30
1956;DHT22;978;48.314;11.562;2023-04-01T18:26:28;20.50;66.40
1956;DHT22;978;48.314;11.562;2023-04-01T18:29:11;20.50;66.40